sensor_id;sensor_type;location;lat;lon;timestamp;temperature;humidity
26687;DHT22;14298;50.900;4.648;2023-02-23T00:02:05;8.50;97.10
26687;DHT22;14298;50.900;4.648;2023-02-23T00:04:34;8.60;97.10
26687;DHT22;14298;50.900;4.648;2023-02-23T00:07:04;8.60;97.10
26687;DHT22;14298;50.900;4.648;2023-02-23T00:09:32;8.60;97.10
26687;DHT22;14298;50.900;4.648;2023-02-23T00:12:05;8.60;97.10
26687;DHT22;14298;50.900;4.648;2023-02-23T00:14:37;8.60;97.10
26687;DHT22;14298;50.900;4.648;2023-02-23T00:17:06;8.50;97.10
26687;DHT22;14298;50.900;4.648;2023-02-23T00:19:39;8.50;97.10
26687;DHT22;14298;50.900;4.648;2023-02-23T00:22:09;8.50;97.10
26687;DHT22;14298;50.900;4.648;2023-02-23T00:24:38;8.50;97.10
26687;DHT22;14298;50.900;4.648;2023-02-23T00:27:08;8.60;97.10
26687;DHT22;14298;50.900;4.648;2023-02-23T00:29:36;8.50;97.10
26687;DHT22;14298;50.900;4.648;2023-02-23T00:32:07;8.50;97.10
26687;DHT22;14298;50.900;4.648;2023-02-23T00:34:36;8.50;97.10
26687;DHT22;14298;50.900;4.648;2023-02-23T00:37:04;8.50;97.10
26687;DHT22;14298;50.900;4.648;2023-02-23T00:39:34;8.50;97.10
26687;DHT22;14298;50.900;4.648;2023-02-23T00:42:02;8.50;97.10
26687;DHT22;14298;50.900;4.648;2023-02-23T00:44:32;8.60;97.10
26687;DHT22;14298;50.900;4.648;2023-02-23T00:47:01;8.60;97.10
26687;DHT22;14298;50.900;4.648;2023-02-23T00:49:31;8.60;97.10
26687;DHT22;14298;50.900;4.648;2023-02-23T00:51:59;8.60;97.10
26687;DHT22;14298;50.900;4.648;2023-02-23T00:54:28;8.50;97.10
26687;DHT22;14298;50.900;4.648;2023-02-23T00:56:56;8.50;97.10
26687;DHT22;14298;50.900;4.648;2023-02-23T00:59:24;8.60;97.10
26687;DHT22;14298;50.900;4.648;2023-02-23T01:01:53;8.50;97.10
26687;DHT22;14298;50.900;4.648;2023-02-23T01:04:21;8.60;97.10
26687;DHT22;14298;50.900;4.648;2023-02-23T01:06:50;8.60;97.10
26687;DHT22;14298;50.900;4.648;2023-02-23T01:09:18;8.70;97.10
26687;DHT22;14298;50.900;4.648;2023-02-23T01:11:51;8.60;97.10
26687;DHT22;14298;50.900;4.648;2023-02-23T01:14:19;8.60;97.10
26687;DHT22;14298;50.900;4.648;2023-02-23T01:16:48;8.60;97.10
26687;DHT22;14298;50.900;4.648;2023-02-23T01:19:16;8.60;97.10
26687;DHT22;14298;50.900;4.648;2023-02-23T01:21:45;8.60;97.10
26687;DHT22;14298;50.900;4.648;2023-02-23T01:24:13;8.60;97.10
26687;DHT22;14298;50.900;4.648;2023-02-23T01:26:43;8.60;97.10
26687;DHT22;14298;50.900;4.648;2023-02-23T01:29:14;8.60;97.10
26687;DHT22;14298;50.900;4.648;2023-02-23T01:31:45;8.70;97.10
26687;DHT22;14298;50.900;4.648;2023-02-23T01:34:14;8.70;97.10
26687;DHT22;14298;50.900;4.648;2023-02-23T01:36:44;8.70;97.10
26687;DHT22;14298;50.900;4.648;2023-02-23T01:39:32;8.70;97.10
26687;DHT22;14298;50.900;4.648;2023-02-23T01:42:00;8.60;97.10
26687;DHT22;14298;50.900;4.648;2023-02-23T01:47:05;8.70;97.10
26687;DHT22;14298;50.900;4.648;2023-02-23T01:49:34;8.70;97.10
26687;DHT22;14298;50.900;4.648;2023-02-23T01:52:05;8.70;97.10
26687;DHT22;14298;50.900;4.648;2023-02-23T01:54:36;8.70;97.10
26687;DHT22;14298;50.900;4.648;2023-02-23T01:57:07;8.70;97.10
26687;DHT22;14298;50.900;4.648;2023-02-23T01:59:40;8.70;97.10
26687;DHT22;14298;50.900;4.648;2023-02-23T02:02:08;8.70;97.10
26687;DHT22;14298;50.900;4.648;2023-02-23T02:04:39;8.70;97.10
26687;DHT22;14298;50.900;4.648;2023-02-23T02:07:16;8.70;97.10
26687;DHT22;14298;50.900;4.648;2023-02-23T02:10:04;8.70;97.10
26687;DHT22;14298;50.900;4.648;2023-02-23T02:12:48;8.70;97.10
26687;DHT22;14298;50.900;4.648;2023-02-23T02:15:17;8.70;97.10
26687;DHT22;14298;50.900;4.648;2023-02-23T02:18:03;8.70;97.10
26687;DHT22;14298;50.900;4.648;2023-02-23T02:26:48;8.70;97.10
26687;DHT22;14298;50.900;4.648;2023-02-23T02:38:34;8.60;97.10
26687;DHT22;14298;50.900;4.648;2023-02-23T02:41:13;8.60;97.10
26687;DHT22;14298;50.900;4.648;2023-02-23T02:44:02;8.70;97.10
26687;DHT22;14298;50.900;4.648;2023-02-23T02:46:36;8.70;97.10
26687;DHT22;14298;50.900;4.648;2023-02-23T02:49:28;8.70;97.10
26687;DHT22;14298;50.900;4.648;2023-02-23T02:52:07;8.70;97.10
26687;DHT22;14298;50.900;4.648;2023-02-23T02:54:43;8.70;97.10
26687;DHT22;14298;50.900;4.648;2023-02-23T02:57:12;8.70;97.10
26687;DHT22;14298;50.900;4.648;2023-02-23T02:59:47;8.70;97.10
26687;DHT22;14298;50.900;4.648;2023-02-23T03:02:39;8.60;97.10
26687;DHT22;14298;50.900;4.648;2023-02-23T03:05:41;8.60;97.10
26687;DHT22;14298;50.900;4.648;2023-02-23T03:11:26;8.60;97.10
26687;DHT22;14298;50.900;4.648;2023-02-23T03:29:46;8.50;97.10
26687;DHT22;14298;50.900;4.648;2023-02-23T03:32:43;8.40;97.10
26687;DHT22;14298;50.900;4.648;2023-02-23T03:39:01;8.40;97.10
26687;DHT22;14298;50.900;4.648;2023-02-23T03:41:45;8.40;97.10
26687;DHT22;14298;50.900;4.648;2023-02-23T03:44:38;8.40;97.10
26687;DHT22;14298;50.900;4.648;2023-02-23T03:47:23;8.40;97.10
26687;DHT22;14298;50.900;4.648;2023-02-23T03:53:09;8.40;97.10
26687;DHT22;14298;50.900;4.648;2023-02-23T03:55:57;8.40;97.10
26687;DHT22;14298;50.900;4.648;2023-02-23T03:58:53;8.40;97.10
26687;DHT22;14298;50.900;4.648;2023-02-23T04:01:37;8.30;97.10
26687;DHT22;14298;50.900;4.648;2023-02-23T04:04:24;8.30;97.10
26687;DHT22;14298;50.900;4.648;2023-02-23T04:07:12;8.30;97.10
26687;DHT22;14298;50.900;4.648;2023-02-23T04:10:01;8.30;97.10
26687;DHT22;14298;50.900;4.648;2023-02-23T04:13:10;8.20;97.10
26687;DHT22;14298;50.900;4.648;2023-02-23T04:18:27;8.20;97.10
26687;DHT22;14298;50.900;4.648;2023-02-23T04:20:57;8.20;97.10
26687;DHT22;14298;50.900;4.648;2023-02-23T04:23:25;8.20;97.10
26687;DHT22;14298;50.900;4.648;2023-02-23T04:25:55;8.20;97.10
26687;DHT22;14298;50.900;4.648;2023-02-23T04:28:25;8.30;97.10
26687;DHT22;14298;50.900;4.648;2023-02-23T04:30:54;8.20;97.10
26687;DHT22;14298;50.900;4.648;2023-02-23T04:33:22;8.20;97.10
26687;DHT22;14298;50.900;4.648;2023-02-23T04:36:11;8.10;97.10
26687;DHT22;14298;50.900;4.648;2023-02-23T04:38:40;8.10;97.10
26687;DHT22;14298;50.900;4.648;2023-02-23T04:41:08;8.10;97.10
26687;DHT22;14298;50.900;4.648;2023-02-23T04:43:37;8.10;97.10
26687;DHT22;14298;50.900;4.648;2023-02-23T04:46:05;8.10;97.10
26687;DHT22;14298;50.900;4.648;2023-02-23T04:48:33;8.10;97.10
26687;DHT22;14298;50.900;4.648;2023-02-23T04:51:02;8.10;97.10
26687;DHT22;14298;50.900;4.648;2023-02-23T04:53:30;8.10;97.10
26687;DHT22;14298;50.900;4.648;2023-02-23T04:55:59;8.00;97.10
26687;DHT22;14298;50.900;4.648;2023-02-23T04:58:27;8.00;97.10
26687;DHT22;14298;50.900;4.648;2023-02-23T05:01:02;8.00;97.10
26687;DHT22;14298;50.900;4.648;2023-02-23T05:03:27;7.90;97.10
26687;DHT22;14298;50.900;4.648;2023-02-23T05:05:55;7.90;97.10
26687;DHT22;14298;50.900;4.648;2023-02-23T05:08:24;8.00;97.10
26687;DHT22;14298;50.900;4.648;2023-02-23T05:10:52;8.00;97.10
26687;DHT22;14298;50.900;4.648;2023-02-23T05:13:20;8.00;97.10
26687;DHT22;14298;50.900;4.648;2023-02-23T05:15:49;8.00;97.10
26687;DHT22;14298;50.900;4.648;2023-02-23T05:18:17;8.00;97.10
26687;DHT22;14298;50.900;4.648;2023-02-23T05:20:46;8.00;97.10
26687;DHT22;14298;50.900;4.648;2023-02-23T05:23:14;8.00;97.10
26687;DHT22;14298;50.900;4.648;2023-02-23T05:25:43;8.00;97.10
26687;DHT22;14298;50.900;4.648;2023-02-23T05:28:11;8.00;97.10
26687;DHT22;14298;50.900;4.648;2023-02-23T05:30:39;7.90;97.10
26687;DHT22;14298;50.900;4.648;2023-02-23T05:33:08;7.90;97.10
26687;DHT22;14298;50.900;4.648;2023-02-23T05:35:38;7.90;97.10
26687;DHT22;14298;50.900;4.648;2023-02-23T05:38:07;7.90;97.10
26687;DHT22;14298;50.900;4.648;2023-02-23T05:40:35;8.00;97.10
26687;DHT22;14298;50.900;4.648;2023-02-23T05:43:04;8.00;97.10
26687;DHT22;14298;50.900;4.648;2023-02-23T05:45:32;8.00;97.10
26687;DHT22;14298;50.900;4.648;2023-02-23T05:48:00;7.90;97.10
26687;DHT22;14298;50.900;4.648;2023-02-23T05:50:29;8.00;97.10
26687;DHT22;14298;50.900;4.648;2023-02-23T05:52:57;8.00;97.10
26687;DHT22;14298;50.900;4.648;2023-02-23T05:55:26;7.90;97.10
26687;DHT22;14298;50.900;4.648;2023-02-23T05:57:55;7.90;97.10
26687;DHT22;14298;50.900;4.648;2023-02-23T06:00:23;7.90;97.10
26687;DHT22;14298;50.900;4.648;2023-02-23T06:02:52;7.90;97.10
26687;DHT22;14298;50.900;4.648;2023-02-23T06:05:21;7.90;97.10
26687;DHT22;14298;50.900;4.648;2023-02-23T06:07:49;7.90;97.10
26687;DHT22;14298;50.900;4.648;2023-02-23T06:10:17;7.90;97.10
26687;DHT22;14298;50.900;4.648;2023-02-23T06:12:46;7.90;97.10
26687;DHT22;14298;50.900;4.648;2023-02-23T06:15:14;7.90;97.10
26687;DHT22;14298;50.900;4.648;2023-02-23T06:17:42;7.80;97.10
26687;DHT22;14298;50.900;4.648;2023-02-23T06:20:11;7.80;97.10
26687;DHT22;14298;50.900;4.648;2023-02-23T06:22:40;7.80;97.10
26687;DHT22;14298;50.900;4.648;2023-02-23T06:25:09;7.80;97.10
26687;DHT22;14298;50.900;4.648;2023-02-23T06:27:39;7.70;97.10
26687;DHT22;14298;50.900;4.648;2023-02-23T06:30:09;7.70;97.10
26687;DHT22;14298;50.900;4.648;2023-02-23T06:32:38;7.70;97.10
26687;DHT22;14298;50.900;4.648;2023-02-23T06:35:07;7.60;97.10
26687;DHT22;14298;50.900;4.648;2023-02-23T06:37:35;7.60;97.10
26687;DHT22;14298;50.900;4.648;2023-02-23T06:40:05;7.60;97.10
26687;DHT22;14298;50.900;4.648;2023-02-23T06:42:33;7.70;97.10
26687;DHT22;14298;50.900;4.648;2023-02-23T06:45:04;7.70;97.10
26687;DHT22;14298;50.900;4.648;2023-02-23T06:47:32;7.70;97.10
26687;DHT22;14298;50.900;4.648;2023-02-23T06:50:01;7.70;97.10
26687;DHT22;14298;50.900;4.648;2023-02-23T06:52:30;7.80;97.10
26687;DHT22;14298;50.900;4.648;2023-02-23T06:54:58;7.90;97.10
26687;DHT22;14298;50.900;4.648;2023-02-23T06:57:27;7.90;97.10
26687;DHT22;14298;50.900;4.648;2023-02-23T06:59:55;7.80;97.10
26687;DHT22;14298;50.900;4.648;2023-02-23T07:02:23;7.80;97.10
26687;DHT22;14298;50.900;4.648;2023-02-23T07:04:51;7.60;97.10
26687;DHT22;14298;50.900;4.648;2023-02-23T07:07:20;7.60;97.10
26687;DHT22;14298;50.900;4.648;2023-02-23T07:09:48;7.50;97.10
26687;DHT22;14298;50.900;4.648;2023-02-23T07:12:17;7.60;97.10
26687;DHT22;14298;50.900;4.648;2023-02-23T07:14:45;7.60;97.10
26687;DHT22;14298;50.900;4.648;2023-02-23T07:17:13;7.70;97.10
26687;DHT22;14298;50.900;4.648;2023-02-23T07:19:44;7.70;97.10
26687;DHT22;14298;50.900;4.648;2023-02-23T07:22:12;7.80;97.10
26687;DHT22;14298;50.900;4.648;2023-02-23T07:24:40;7.80;97.10
26687;DHT22;14298;50.900;4.648;2023-02-23T07:27:09;7.80;97.10
26687;DHT22;14298;50.900;4.648;2023-02-23T07:29:37;7.90;97.10
26687;DHT22;14298;50.900;4.648;2023-02-23T07:32:05;8.00;97.10
26687;DHT22;14298;50.900;4.648;2023-02-23T07:34:34;8.00;97.10
26687;DHT22;14298;50.900;4.648;2023-02-23T07:37:03;8.10;97.10
26687;DHT22;14298;50.900;4.648;2023-02-23T07:39:31;8.20;97.10
26687;DHT22;14298;50.900;4.648;2023-02-23T07:42:00;8.20;97.10
26687;DHT22;14298;50.900;4.648;2023-02-23T07:44:28;8.20;97.10
26687;DHT22;14298;50.900;4.648;2023-02-23T07:46:56;8.30;97.10
26687;DHT22;14298;50.900;4.648;2023-02-23T07:49:25;8.30;97.10
26687;DHT22;14298;50.900;4.648;2023-02-23T07:51:53;8.30;97.10
26687;DHT22;14298;50.900;4.648;2023-02-23T07:54:21;8.30;97.10
26687;DHT22;14298;50.900;4.648;2023-02-23T07:56:51;8.30;97.10
26687;DHT22;14298;50.900;4.648;2023-02-23T07:59:20;8.40;97.10
26687;DHT22;14298;50.900;4.648;2023-02-23T08:01:48;8.40;97.10
26687;DHT22;14298;50.900;4.648;2023-02-23T08:04:18;8.40;97.10
26687;DHT22;14298;50.900;4.648;2023-02-23T08:06:46;8.30;97.10
26687;DHT22;14298;50.900;4.648;2023-02-23T08:09:15;8.30;97.10
26687;DHT22;14298;50.900;4.648;2023-02-23T08:11:43;8.30;97.10
26687;DHT22;14298;50.900;4.648;2023-02-23T08:14:11;8.30;97.10
26687;DHT22;14298;50.900;4.648;2023-02-23T08:16:40;8.30;97.10
26687;DHT22;14298;50.900;4.648;2023-02-23T08:19:08;8.30;97.10
26687;DHT22;14298;50.900;4.648;2023-02-23T08:21:37;8.20;97.10
26687;DHT22;14298;50.900;4.648;2023-02-23T08:24:05;8.20;97.10
26687;DHT22;14298;50.900;4.648;2023-02-23T08:26:35;8.20;97.10
26687;DHT22;14298;50.900;4.648;2023-02-23T08:29:06;8.10;97.10
26687;DHT22;14298;50.900;4.648;2023-02-23T08:31:34;8.10;97.10
26687;DHT22;14298;50.900;4.648;2023-02-23T08:34:02;8.10;97.10
26687;DHT22;14298;50.900;4.648;2023-02-23T08:36:31;8.10;97.10
26687;DHT22;14298;50.900;4.648;2023-02-23T08:38:59;8.20;97.10
26687;DHT22;14298;50.900;4.648;2023-02-23T08:41:27;8.40;97.10
26687;DHT22;14298;50.900;4.648;2023-02-23T08:43:57;8.40;97.10
26687;DHT22;14298;50.900;4.648;2023-02-23T08:46:26;8.50;97.10
26687;DHT22;14298;50.900;4.648;2023-02-23T08:48:55;8.60;97.10
26687;DHT22;14298;50.900;4.648;2023-02-23T08:51:23;8.60;97.10
26687;DHT22;14298;50.900;4.648;2023-02-23T08:53:52;8.50;97.10
26687;DHT22;14298;50.900;4.648;2023-02-23T08:56:22;8.40;97.10
26687;DHT22;14298;50.900;4.648;2023-02-23T08:58:51;8.40;97.10
26687;DHT22;14298;50.900;4.648;2023-02-23T09:01:20;8.50;97.10
26687;DHT22;14298;50.900;4.648;2023-02-23T09:03:48;8.60;97.10
26687;DHT22;14298;50.900;4.648;2023-02-23T09:06:19;8.60;97.10
26687;DHT22;14298;50.900;4.648;2023-02-23T09:08:48;8.50;97.10
26687;DHT22;14298;50.900;4.648;2023-02-23T09:11:16;8.50;97.10
26687;DHT22;14298;50.900;4.648;2023-02-23T09:13:45;8.50;97.10
26687;DHT22;14298;50.900;4.648;2023-02-23T09:16:13;8.40;97.10
26687;DHT22;14298;50.900;4.648;2023-02-23T09:18:42;8.50;97.10
26687;DHT22;14298;50.900;4.648;2023-02-23T09:21:15;8.50;97.10
26687;DHT22;14298;50.900;4.648;2023-02-23T09:23:46;8.40;97.10
26687;DHT22;14298;50.900;4.648;2023-02-23T09:26:16;8.30;97.10
26687;DHT22;14298;50.900;4.648;2023-02-23T09:28:44;8.30;97.10
26687;DHT22;14298;50.900;4.648;2023-02-23T09:31:20;8.30;97.10
26687;DHT22;14298;50.900;4.648;2023-02-23T09:33:44;8.40;97.10
26687;DHT22;14298;50.900;4.648;2023-02-23T09:36:15;8.40;97.10
26687;DHT22;14298;50.900;4.648;2023-02-23T09:38:46;8.40;97.10
26687;DHT22;14298;50.900;4.648;2023-02-23T09:47:32;8.40;97.10
26687;DHT22;14298;50.900;4.648;2023-02-23T09:49:17;8.30;97.10
26687;DHT22;14298;50.900;4.648;2023-02-23T09:51:50;8.30;97.10
26687;DHT22;14298;50.900;4.648;2023-02-23T09:54:22;8.40;97.10
26687;DHT22;14298;50.900;4.648;2023-02-23T09:56:52;8.40;97.10
26687;DHT22;14298;50.900;4.648;2023-02-23T09:59:22;8.50;97.10
26687;DHT22;14298;50.900;4.648;2023-02-23T10:02:31;8.50;97.10
26687;DHT22;14298;50.900;4.648;2023-02-23T10:05:04;8.70;97.10
26687;DHT22;14298;50.900;4.648;2023-02-23T10:18:53;8.80;97.10
26687;DHT22;14298;50.900;4.648;2023-02-23T10:21:30;8.80;97.10
26687;DHT22;14298;50.900;4.648;2023-02-23T10:23:59;8.90;97.10
26687;DHT22;14298;50.900;4.648;2023-02-23T10:26:37;8.90;97.10
26687;DHT22;14298;50.900;4.648;2023-02-23T10:29:00;9.10;97.10
26687;DHT22;14298;50.900;4.648;2023-02-23T10:31:42;9.00;97.10
26687;DHT22;14298;50.900;4.648;2023-02-23T10:34:30;8.90;97.10
26687;DHT22;14298;50.900;4.648;2023-02-23T10:37:01;8.90;97.10
26687;DHT22;14298;50.900;4.648;2023-02-23T10:39:30;8.80;97.10
26687;DHT22;14298;50.900;4.648;2023-02-23T10:42:04;8.80;97.10
26687;DHT22;14298;50.900;4.648;2023-02-23T10:44:34;9.10;97.10
26687;DHT22;14298;50.900;4.648;2023-02-23T10:47:05;9.20;97.10
26687;DHT22;14298;50.900;4.648;2023-02-23T10:49:45;9.20;97.10
26687;DHT22;14298;50.900;4.648;2023-02-23T10:54:55;9.30;97.10
26687;DHT22;14298;50.900;4.648;2023-02-23T10:57:32;9.20;97.10
26687;DHT22;14298;50.900;4.648;2023-02-23T11:02:47;9.50;97.10
26687;DHT22;14298;50.900;4.648;2023-02-23T11:05:31;9.60;97.10
26687;DHT22;14298;50.900;4.648;2023-02-23T11:08:23;9.60;97.10
26687;DHT22;14298;50.900;4.648;2023-02-23T11:13:43;9.60;97.10
26687;DHT22;14298;50.900;4.648;2023-02-23T11:16:18;9.60;97.10
26687;DHT22;14298;50.900;4.648;2023-02-23T11:18:53;9.70;97.10
26687;DHT22;14298;50.900;4.648;2023-02-23T11:21:27;9.90;97.10
26687;DHT22;14298;50.900;4.648;2023-02-23T11:23:58;9.90;97.10
26687;DHT22;14298;50.900;4.648;2023-02-23T11:26:36;10.00;97.10
26687;DHT22;14298;50.900;4.648;2023-02-23T11:29:15;9.90;97.10
26687;DHT22;14298;50.900;4.648;2023-02-23T11:31:55;9.90;97.10
26687;DHT22;14298;50.900;4.648;2023-02-23T11:37:21;10.10;97.10
26687;DHT22;14298;50.900;4.648;2023-02-23T11:39:58;10.20;97.10
26687;DHT22;14298;50.900;4.648;2023-02-23T11:42:30;10.30;97.10
26687;DHT22;14298;50.900;4.648;2023-02-23T11:45:05;10.20;97.10
26687;DHT22;14298;50.900;4.648;2023-02-23T11:47:39;10.10;97.10
26687;DHT22;14298;50.900;4.648;2023-02-23T11:50:19;10.00;97.10
26687;DHT22;14298;50.900;4.648;2023-02-23T11:52:41;9.90;97.10
26687;DHT22;14298;50.900;4.648;2023-02-23T11:55:15;9.80;97.10
26687;DHT22;14298;50.900;4.648;2023-02-23T11:57:42;9.80;97.10
26687;DHT22;14298;50.900;4.648;2023-02-23T12:00:19;9.80;97.10
26687;DHT22;14298;50.900;4.648;2023-02-23T12:02:51;9.80;97.10
26687;DHT22;14298;50.900;4.648;2023-02-23T12:05:23;9.80;97.10
26687;DHT22;14298;50.900;4.648;2023-02-23T12:10:27;9.60;97.10
26687;DHT22;14298;50.900;4.648;2023-02-23T12:15:55;9.60;97.10
26687;DHT22;14298;50.900;4.648;2023-02-23T12:19:39;9.70;97.10
26687;DHT22;14298;50.900;4.648;2023-02-23T12:21:21;9.70;97.10
26687;DHT22;14298;50.900;4.648;2023-02-23T12:23:48;9.70;97.10
26687;DHT22;14298;50.900;4.648;2023-02-23T12:26:20;9.80;97.10
26687;DHT22;14298;50.900;4.648;2023-02-23T12:29:05;9.80;97.10
26687;DHT22;14298;50.900;4.648;2023-02-23T12:31:48;9.80;97.10
26687;DHT22;14298;50.900;4.648;2023-02-23T12:34:46;9.90;97.10
26687;DHT22;14298;50.900;4.648;2023-02-23T12:39:49;10.00;97.10
26687;DHT22;14298;50.900;4.648;2023-02-23T12:42:34;10.00;97.10
26687;DHT22;14298;50.900;4.648;2023-02-23T12:44:58;10.00;97.10
26687;DHT22;14298;50.900;4.648;2023-02-23T12:47:36;10.00;97.10
26687;DHT22;14298;50.900;4.648;2023-02-23T12:53:15;10.10;97.10
26687;DHT22;14298;50.900;4.648;2023-02-23T12:55:57;10.10;97.10
26687;DHT22;14298;50.900;4.648;2023-02-23T12:58:38;10.10;97.10
26687;DHT22;14298;50.900;4.648;2023-02-23T13:01:15;10.10;97.10
26687;DHT22;14298;50.900;4.648;2023-02-23T13:03:48;10.20;97.10
26687;DHT22;14298;50.900;4.648;2023-02-23T13:09:42;10.20;97.10
26687;DHT22;14298;50.900;4.648;2023-02-23T13:14:57;10.20;97.10
26687;DHT22;14298;50.900;4.648;2023-02-23T13:20:40;10.30;97.10
26687;DHT22;14298;50.900;4.648;2023-02-23T13:23:27;10.20;97.10
26687;DHT22;14298;50.900;4.648;2023-02-23T13:26:29;10.20;97.10
26687;DHT22;14298;50.900;4.648;2023-02-23T13:31:53;10.20;97.10
26687;DHT22;14298;50.900;4.648;2023-02-23T13:34:25;10.40;97.10
26687;DHT22;14298;50.900;4.648;2023-02-23T13:36:54;10.30;97.10
26687;DHT22;14298;50.900;4.648;2023-02-23T13:44:45;10.30;97.10
26687;DHT22;14298;50.900;4.648;2023-02-23T13:47:16;10.30;97.10
26687;DHT22;14298;50.900;4.648;2023-02-23T13:49:58;10.30;97.10
26687;DHT22;14298;50.900;4.648;2023-02-23T13:54:59;10.20;97.10
26687;DHT22;14298;50.900;4.648;2023-02-23T13:57:32;10.00;97.10
26687;DHT22;14298;50.900;4.648;2023-02-23T14:00:02;9.90;97.10
26687;DHT22;14298;50.900;4.648;2023-02-23T14:02:36;9.90;97.10
26687;DHT22;14298;50.900;4.648;2023-02-23T14:05:16;9.80;97.10
26687;DHT22;14298;50.900;4.648;2023-02-23T14:07:46;9.80;97.10
26687;DHT22;14298;50.900;4.648;2023-02-23T14:10:23;9.80;97.10
26687;DHT22;14298;50.900;4.648;2023-02-23T14:16:11;9.70;97.10
26687;DHT22;14298;50.900;4.648;2023-02-23T14:21:59;9.60;97.10
26687;DHT22;14298;50.900;4.648;2023-02-23T14:24:28;9.60;97.10
26687;DHT22;14298;50.900;4.648;2023-02-23T14:32:46;9.50;97.10
26687;DHT22;14298;50.900;4.648;2023-02-23T14:35:36;9.50;97.10
26687;DHT22;14298;50.900;4.648;2023-02-23T14:40:53;9.50;97.10
26687;DHT22;14298;50.900;4.648;2023-02-23T14:43:32;9.60;97.10
26687;DHT22;14298;50.900;4.648;2023-02-23T14:46:01;9.60;97.10
26687;DHT22;14298;50.900;4.648;2023-02-23T14:48:32;9.60;97.10
26687;DHT22;14298;50.900;4.648;2023-02-23T14:51:23;9.60;97.10
26687;DHT22;14298;50.900;4.648;2023-02-23T14:53:42;9.60;97.10
26687;DHT22;14298;50.900;4.648;2023-02-23T14:56:22;9.60;97.10
26687;DHT22;14298;50.900;4.648;2023-02-23T14:58:52;9.60;97.10
26687;DHT22;14298;50.900;4.648;2023-02-23T15:01:38;9.60;97.10
26687;DHT22;14298;50.900;4.648;2023-02-23T15:04:15;9.60;97.10
26687;DHT22;14298;50.900;4.648;2023-02-23T15:06:39;9.70;97.10
26687;DHT22;14298;50.900;4.648;2023-02-23T15:09:22;9.60;97.10
26687;DHT22;14298;50.900;4.648;2023-02-23T15:14:30;9.80;97.10
26687;DHT22;14298;50.900;4.648;2023-02-23T15:17:00;9.80;97.10
26687;DHT22;14298;50.900;4.648;2023-02-23T15:19:30;9.80;97.10
26687;DHT22;14298;50.900;4.648;2023-02-23T15:22:02;9.80;97.10
26687;DHT22;14298;50.900;4.648;2023-02-23T15:24:42;9.90;97.10
26687;DHT22;14298;50.900;4.648;2023-02-23T15:27:20;9.90;97.10
26687;DHT22;14298;50.900;4.648;2023-02-23T15:29:51;9.90;97.10
26687;DHT22;14298;50.900;4.648;2023-02-23T15:32:24;10.00;97.10
26687;DHT22;14298;50.900;4.648;2023-02-23T15:34:54;10.00;97.10
26687;DHT22;14298;50.900;4.648;2023-02-23T15:37:34;10.00;97.10
26687;DHT22;14298;50.900;4.648;2023-02-23T15:40:12;10.00;97.10
26687;DHT22;14298;50.900;4.648;2023-02-23T15:42:49;10.00;97.10
26687;DHT22;14298;50.900;4.648;2023-02-23T15:48:07;10.10;97.10
26687;DHT22;14298;50.900;4.648;2023-02-23T15:50:40;10.10;97.10
26687;DHT22;14298;50.900;4.648;2023-02-23T15:53:07;10.10;97.10
26687;DHT22;14298;50.900;4.648;2023-02-23T15:55:41;10.10;97.10
26687;DHT22;14298;50.900;4.648;2023-02-23T15:58:20;10.10;97.10
26687;DHT22;14298;50.900;4.648;2023-02-23T16:01:00;10.10;97.10
26687;DHT22;14298;50.900;4.648;2023-02-23T16:03:35;10.00;97.10
26687;DHT22;14298;50.900;4.648;2023-02-23T16:06:06;10.00;97.10
26687;DHT22;14298;50.900;4.648;2023-02-23T16:08:34;10.00;97.10
26687;DHT22;14298;50.900;4.648;2023-02-23T16:11:09;9.90;97.10
26687;DHT22;14298;50.900;4.648;2023-02-23T16:13:45;9.90;97.10
26687;DHT22;14298;50.900;4.648;2023-02-23T16:16:15;9.90;97.10
26687;DHT22;14298;50.900;4.648;2023-02-23T16:18:51;9.90;97.10
26687;DHT22;14298;50.900;4.648;2023-02-23T16:21:24;9.80;97.10
26687;DHT22;14298;50.900;4.648;2023-02-23T16:23:53;9.80;97.10
26687;DHT22;14298;50.900;4.648;2023-02-23T16:26:40;9.80;97.10
26687;DHT22;14298;50.900;4.648;2023-02-23T16:29:03;9.80;97.10
26687;DHT22;14298;50.900;4.648;2023-02-23T16:31:43;9.70;97.10
26687;DHT22;14298;50.900;4.648;2023-02-23T16:34:32;9.70;97.10
26687;DHT22;14298;50.900;4.648;2023-02-23T16:37:19;9.60;97.10
26687;DHT22;14298;50.900;4.648;2023-02-23T16:39:49;9.60;97.10
26687;DHT22;14298;50.900;4.648;2023-02-23T16:42:34;9.50;97.10
26687;DHT22;14298;50.900;4.648;2023-02-23T16:45:03;9.40;97.10
26687;DHT22;14298;50.900;4.648;2023-02-23T16:47:43;9.40;97.10
26687;DHT22;14298;50.900;4.648;2023-02-23T16:50:21;9.40;97.10
26687;DHT22;14298;50.900;4.648;2023-02-23T16:52:52;9.30;97.10
26687;DHT22;14298;50.900;4.648;2023-02-23T16:55:25;9.30;97.10
26687;DHT22;14298;50.900;4.648;2023-02-23T16:57:56;9.30;97.10
26687;DHT22;14298;50.900;4.648;2023-02-23T17:00:28;9.20;97.10
26687;DHT22;14298;50.900;4.648;2023-02-23T17:02:58;9.20;97.10
26687;DHT22;14298;50.900;4.648;2023-02-23T17:05:30;9.20;97.10
26687;DHT22;14298;50.900;4.648;2023-02-23T17:08:01;9.20;97.10
26687;DHT22;14298;50.900;4.648;2023-02-23T17:10:32;9.20;97.10
26687;DHT22;14298;50.900;4.648;2023-02-23T17:13:04;9.20;97.10
26687;DHT22;14298;50.900;4.648;2023-02-23T17:15:35;9.20;97.10
26687;DHT22;14298;50.900;4.648;2023-02-23T17:18:06;9.20;97.10
26687;DHT22;14298;50.900;4.648;2023-02-23T17:20:34;9.10;97.10
26687;DHT22;14298;50.900;4.648;2023-02-23T17:23:02;9.10;97.10
26687;DHT22;14298;50.900;4.648;2023-02-23T17:25:50;9.10;97.10
26687;DHT22;14298;50.900;4.648;2023-02-23T17:28:18;9.10;97.10
26687;DHT22;14298;50.900;4.648;2023-02-23T17:30:47;9.10;97.10
26687;DHT22;14298;50.900;4.648;2023-02-23T17:33:15;9.20;97.10
26687;DHT22;14298;50.900;4.648;2023-02-23T17:35:44;9.10;97.10
26687;DHT22;14298;50.900;4.648;2023-02-23T17:38:13;9.10;97.10
26687;DHT22;14298;50.900;4.648;2023-02-23T17:40:41;9.10;97.10
26687;DHT22;14298;50.900;4.648;2023-02-23T17:43:10;9.00;97.10
26687;DHT22;14298;50.900;4.648;2023-02-23T17:45:39;9.10;97.10
26687;DHT22;14298;50.900;4.648;2023-02-23T17:48:07;9.10;97.10
26687;DHT22;14298;50.900;4.648;2023-02-23T17:50:35;9.00;97.10
26687;DHT22;14298;50.900;4.648;2023-02-23T17:53:04;9.00;97.10
26687;DHT22;14298;50.900;4.648;2023-02-23T17:55:32;9.00;97.10
26687;DHT22;14298;50.900;4.648;2023-02-23T17:58:01;9.00;97.10
26687;DHT22;14298;50.900;4.648;2023-02-23T18:00:29;9.00;97.10
26687;DHT22;14298;50.900;4.648;2023-02-23T18:02:59;8.90;97.10
26687;DHT22;14298;50.900;4.648;2023-02-23T18:05:28;8.90;97.10
26687;DHT22;14298;50.900;4.648;2023-02-23T18:07:56;8.90;97.10
26687;DHT22;14298;50.900;4.648;2023-02-23T18:10:25;8.90;97.10
26687;DHT22;14298;50.900;4.648;2023-02-23T18:12:53;8.90;97.10
26687;DHT22;14298;50.900;4.648;2023-02-23T18:15:21;8.90;97.10
26687;DHT22;14298;50.900;4.648;2023-02-23T18:17:50;8.90;97.10
26687;DHT22;14298;50.900;4.648;2023-02-23T18:20:20;8.90;97.10
26687;DHT22;14298;50.900;4.648;2023-02-23T18:22:48;8.80;97.10
26687;DHT22;14298;50.900;4.648;2023-02-23T18:25:25;8.80;97.10